Time;durP1;ratioP1;P1;durP2;ratioP2;P2;SDS_P1;SDS_P2;PMS_P1;PMS_P2;Temp;Humidity;BMP_temperature;BMP_pressure;BME280_temperature;BME280_humidity;BME280_pressure;Samples;Min_cycle;Max_cycle;Signal;HPM_P1;HPM_P2
2022/12/21 00:02:13;;;;;;;8.73;1.97;;;;;;;-145.69;100.00;52618.66;5074378;28;20206;-82
2022/12/21 00:04:42;;;;;;;6.47;1.80;;;;;;;-145.69;100.00;52630.53;5074014;28;20191;-81
2022/12/21 00:07:11;;;;;;;4.53;1.70;;;;;;;-145.69;100.00;52632.53;5074055;28;20226;-81
2022/12/21 00:09:38;;;;;;;4.07;1.93;;;;;;;-145.69;100.00;52630.53;5074058;28;20209;-81
2022/12/21 00:12:04;;;;;;;4.57;2.13;;;;;;;-145.69;100.00;52634.50;5073777;28;20195;-81
2022/12/21 00:14:31;;;;;;;3.00;1.67;;;;;;;-145.69;100.00;52640.44;5073400;28;20673;-81
2022/12/21 00:16:57;;;;;;;6.20;2.30;;;;;;;-145.69;100.00;52634.50;5074020;28;20209;-81
2022/12/21 00:19:24;;;;;;;3.10;1.60;;;;;;;-145.69;100.00;52634.50;5073900;28;20226;-81
2022/12/21 00:21:51;;;;;;;5.63;2.00;;;;;;;-145.69;100.00;52638.47;5071110;28;20206;-81
2022/12/21 00:24:18;;;;;;;4.23;2.20;;;;;;;-145.69;100.00;52628.56;5054913;28;20203;-81
2022/12/21 00:26:45;;;;;;;4.73;1.87;;;;;;;-145.69;100.00;52658.28;5083506;28;20716;-81
2022/12/21 00:29:11;;;;;;;4.57;2.00;;;;;;;-145.69;100.00;52638.47;5073912;28;20202;-81
2022/12/21 00:31:39;;;;;;;4.37;2.20;;;;;;;-145.69;100.00;52614.72;5073644;28;20202;-80
2022/12/21 00:34:05;;;;;;;5.20;2.30;;;;;;;-145.69;100.00;52636.50;5068572;28;20488;-80
2022/12/21 00:36:32;;;;;;;3.53;2.10;;;;;;;-145.69;100.00;52610.75;5054889;28;20594;-80
2022/12/21 00:39:00;;;;;;;3.57;2.10;;;;;;;-145.69;100.00;52670.16;5053429;28;20206;-80
2022/12/21 00:41:28;;;;;;;4.20;2.37;;;;;;;-145.69;100.00;52646.41;5053260;28;20230;-80
2022/12/21 00:43:55;;;;;;;3.43;1.80;;;;;;;-145.69;100.00;52630.53;5068173;28;20199;-80
2022/12/21 00:46:24;;;;;;;5.73;2.00;;;;;;;-145.69;100.00;52614.72;5073447;28;20202;-80
2022/12/21 00:48:50;;;;;;;6.13;1.90;;;;;;;-145.69;100.00;52640.44;5073494;28;20203;-80
2022/12/21 00:51:19;;;;;;;4.20;2.43;;;;;;;-145.69;100.00;52628.56;5073262;28;20604;-80
2022/12/21 00:53:46;;;;;;;7.97;1.90;;;;;;;-145.69;100.00;52642.44;5073083;28;20202;-79
2022/12/21 00:56:15;;;;;;;4.23;1.90;;;;;;;-145.69;100.00;52614.72;5073142;28;20297;-79
2022/12/21 00:58:42;;;;;;;11.33;2.50;;;;;;;-145.69;100.00;52646.41;5053336;28;20204;-80
2022/12/21 01:01:11;;;;;;;9.97;2.77;;;;;;;-145.69;100.00;52654.31;5052986;28;20713;-80
2022/12/21 01:03:38;;;;;;;6.27;2.37;;;;;;;-145.69;100.00;52614.72;5052990;28;20226;-80
2022/12/21 01:06:05;;;;;;;6.17;2.83;;;;;;;-145.69;100.00;52638.47;5072578;28;20543;-80
2022/12/21 01:08:32;;;;;;;3.27;2.27;;;;;;;-145.69;100.00;52646.41;5072833;28;20213;-79
2022/12/21 01:10:59;;;;;;;5.73;2.00;;;;;;;-145.69;100.00;52630.53;5072600;28;20202;-80
2022/12/21 01:13:27;;;;;;;5.43;2.53;;;;;;;-145.69;100.00;52644.41;5072981;28;20202;-80
2022/12/21 01:15:54;;;;;;;7.77;2.07;;;;;;;-145.69;100.00;52614.72;5072712;28;20198;-80
2022/12/21 01:18:21;;;;;;;5.93;2.50;;;;;;;-145.69;100.00;52658.28;5072951;28;20198;-80
2022/12/21 01:20:49;;;;;;;5.17;2.30;;;;;;;-145.69;100.00;52650.34;5072407;28;20573;-80
2022/12/21 01:23:16;;;;;;;7.33;2.40;;;;;;;-145.69;100.00;52652.34;5072770;28;20561;-80
2022/12/21 01:25:43;;;;;;;5.23;2.77;;;;;;;-145.69;100.00;52674.13;5073014;28;20570;-81
2022/12/21 01:28:10;;;;;;;8.77;3.10;;;;;;;-145.69;100.00;52660.25;5072760;28;20242;-81
2022/12/21 01:30:38;;;;;;;6.47;2.50;;;;;;;-145.69;100.00;52628.56;5072904;28;20202;-80
2022/12/21 01:33:05;;;;;;;6.97;2.90;;;;;;;-145.69;100.00;52658.28;5072572;28;20199;-81
2022/12/21 01:35:31;;;;;;;5.33;2.70;;;;;;;-145.69;100.00;52598.84;5072352;28;20194;-79
2022/12/21 01:37:57;;;;;;;4.03;2.17;;;;;;;-145.69;100.00;52644.41;5072577;28;20234;-81
2022/12/21 01:40:25;;;;;;;4.07;2.60;;;;;;;-145.69;100.00;52642.44;5072759;28;20234;-81
2022/12/21 01:42:51;;;;;;;6.83;2.53;;;;;;;-145.69;100.00;52656.28;5072660;28;20195;-80
2022/12/21 01:45:23;;;;;;;9.83;2.87;;;;;;;-145.69;100.00;52670.16;5072554;28;20199;-81
2022/12/21 01:47:55;;;;;;;6.33;2.80;;;;;;;-145.69;100.00;52640.44;5072648;28;20203;-80
2022/12/21 01:50:39;;;;;;;4.93;2.73;;;;;;;-145.69;100.00;52650.34;5072942;28;20198;-80
2022/12/21 01:53:09;;;;;;;5.57;2.70;;;;;;;-145.69;100.00;52648.38;5072763;28;20562;-81
2022/12/21 01:55:37;;;;;;;5.40;2.90;;;;;;;-145.69;100.00;52680.06;5072482;28;20214;-81
2022/12/21 01:58:07;;;;;;;9.50;2.90;;;;;;;-145.69;100.00;52628.56;5072599;28;20233;-81
2022/12/21 02:00:34;;;;;;;6.07;2.90;;;;;;;-145.69;100.00;52628.56;5072257;28;20234;-80
2022/12/21 02:03:05;;;;;;;4.27;2.37;;;;;;;-145.69;100.00;52632.53;5072731;28;20198;-80
2022/12/21 02:05:38;;;;;;;4.17;2.67;;;;;;;-145.69;100.00;52644.41;5071915;28;20194;-80
2022/12/21 02:08:06;;;;;;;6.23;3.10;;;;;;;-145.69;100.00;52622.63;5072589;28;20198;-79
2022/12/21 02:10:33;;;;;;;4.50;2.47;;;;;;;-145.69;100.00;52654.31;5072294;28;20711;-80
2022/12/21 02:13:02;;;;;;;11.23;3.10;;;;;;;-145.69;100.00;52632.53;5072347;28;20206;-80
2022/12/21 02:15:42;;;;;;;5.27;2.30;;;;;;;-145.69;100.00;52634.50;5072334;28;20227;-79
2022/12/21 02:18:19;;;;;;;3.83;2.17;;;;;;;-145.69;100.00;52638.47;5072368;28;20198;-79
2022/12/21 02:21:21;;;;;;;4.97;2.30;;;;;;;-145.69;100.00;52666.19;5057454;28;20235;-80
2022/12/21 02:24:17;;;;;;;6.23;2.60;;;;;;;-145.69;100.00;52646.41;5057552;28;20206;-79
2022/12/21 02:26:56;;;;;;;4.27;2.40;;;;;;;-145.69;100.00;52654.31;5072301;28;20203;-80
2022/12/21 02:30:10;;;;;;;5.83;2.10;;;;;;;-145.69;100.00;52644.41;5072259;28;20220;-80
2022/12/21 02:32:53;;;;;;;4.73;1.97;;;;;;;-145.69;100.00;52662.22;5072283;28;20199;-79
2022/12/21 02:35:31;;;;;;;3.13;1.70;;;;;;;-145.69;100.00;52610.75;5071609;28;20198;-80
2022/12/21 02:38:08;;;;;;;3.87;1.93;;;;;;;-145.69;100.00;52618.66;5071926;28;20597;-80
2022/12/21 02:40:43;;;;;;;2.87;1.60;;;;;;;-145.69;100.00;52650.34;5071916;28;20271;-80
2022/12/21 02:46:08;;;;;;;4.17;1.70;;;;;;;-145.69;100.00;52610.75;5054439;28;20688;-80
2022/12/21 02:48:45;;;;;;;2.50;1.47;;;;;;;-145.69;100.00;52622.63;5075495;28;20203;-80
2022/12/21 02:51:16;;;;;;;4.23;1.50;;;;;;;-145.69;100.00;52658.28;5075731;28;20607;-80
2022/12/21 02:53:44;;;;;;;3.53;1.40;;;;;;;-145.69;100.00;52626.59;5075328;28;20202;-80
2022/12/21 02:56:14;;;;;;;2.27;1.47;;;;;;;-145.69;100.00;52656.28;5075573;28;20210;-80
2022/12/21 02:58:41;;;;;;;2.17;1.33;;;;;;;-145.69;100.00;52632.53;5075254;28;20203;-80
2022/12/21 03:01:23;;;;;;;2.40;1.43;;;;;;;-145.69;100.00;52618.66;5075378;28;20265;-80
2022/12/21 03:04:06;;;;;;;5.20;1.60;;;;;;;-145.69;100.00;52646.41;5075791;28;20206;-81
2022/12/21 03:07:05;;;;;;;6.17;1.70;;;;;;;-145.69;100.00;52618.66;5075370;28;20202;-81
2022/12/21 03:09:40;;;;;;;2.83;1.40;;;;;;;-145.69;100.00;52634.50;5075740;28;20281;-81
2022/12/21 03:12:14;;;;;;;2.33;1.50;;;;;;;-145.69;100.00;52624.59;5075397;28;20209;-81
2022/12/21 03:14:51;;;;;;;2.40;1.50;;;;;;;-145.69;100.00;52610.75;5075008;28;20202;-81
2022/12/21 03:17:27;;;;;;;2.37;1.30;;;;;;;-145.69;100.00;52628.56;5075161;28;20213;-82
2022/12/21 03:20:01;;;;;;;3.33;1.30;;;;;;;-145.69;100.00;52626.59;5075165;28;20201;-81
2022/12/21 03:22:34;;;;;;;7.20;1.70;;;;;;;-145.69;100.00;52646.41;5075242;28;20198;-82
2022/12/21 03:25:07;;;;;;;4.70;1.17;;;;;;;-145.69;100.00;52654.31;5075236;28;20199;-82
2022/12/21 03:27:38;;;;;;;1.80;1.30;;;;;;;-145.69;100.00;52640.44;5075089;28;20205;-82
2022/12/21 03:30:07;;;;;;;1.67;1.20;;;;;;;-145.69;100.00;52634.50;5074644;28;20191;-81
2022/12/21 03:32:40;;;;;;;5.90;1.60;;;;;;;-145.69;100.00;52620.66;5074400;28;20609;-81
2022/12/21 03:35:18;;;;;;;3.90;1.40;;;;;;;-145.69;100.00;52638.47;5075058;28;20641;-82
2022/12/21 03:37:47;;;;;;;3.67;1.40;;;;;;;-145.69;100.00;52614.72;5075262;28;20234;-82
2022/12/21 03:40:17;;;;;;;3.77;1.30;;;;;;;-145.69;100.00;52654.31;5075643;28;20205;-83
2022/12/21 03:42:48;;;;;;;4.60;1.55;;;;;;;-145.69;100.00;52622.63;5073554;28;20929;-82
2022/12/21 03:45:20;;;;;;;2.30;1.40;;;;;;;-145.69;100.00;52656.28;5074900;28;20233;-81
2022/12/21 03:47:53;;;;;;;5.00;1.30;;;;;;;-145.69;100.00;52614.72;5074665;28;20653;-82
2022/12/21 03:50:26;;;;;;;4.70;1.37;;;;;;;-145.69;100.00;52608.75;5074549;28;20195;-81
2022/12/21 03:53:00;;;;;;;2.33;1.30;;;;;;;-145.69;100.00;52610.75;5074409;28;20203;-80
2022/12/21 03:55:31;;;;;;;5.50;1.70;;;;;;;-145.69;100.00;52585.00;5074560;28;20206;-80
2022/12/21 03:57:58;;;;;;;2.57;1.47;;;;;;;-145.69;100.00;52628.56;5074538;28;20194;-80
2022/12/21 04:00:28;;;;;;;3.73;1.53;;;;;;;-145.69;100.00;52598.84;5073784;28;20641;-81
2022/12/21 04:03:00;;;;;;;2.43;1.50;;;;;;;-145.69;100.00;52630.53;5074361;28;20195;-80
2022/12/21 04:05:31;;;;;;;2.70;1.33;;;;;;;-145.69;100.00;52640.44;5074143;28;20207;-80
2022/12/21 04:07:58;;;;;;;2.73;1.23;;;;;;;-145.69;100.00;52598.84;5074116;28;20539;-80
2022/12/21 04:10:26;;;;;;;2.53;1.40;;;;;;;-145.69;100.00;52636.50;5074028;28;20201;-80
2022/12/21 04:12:51;;;;;;;6.37;1.60;;;;;;;-145.69;100.00;52626.59;5073979;28;20195;-81
2022/12/21 04:15:19;;;;;;;3.80;1.60;;;;;;;-145.69;100.00;52622.63;5057491;28;20208;-81
2022/12/21 04:17:48;;;;;;;2.17;1.57;;;;;;;-145.69;100.00;52614.72;5053929;28;20215;-81
2022/12/21 04:20:16;;;;;;;1.20;1.10;;;;;;;-145.69;100.00;52630.53;5054004;28;20203;-81
2022/12/21 04:28:19;;;;;;;2.27;1.67;;;;;;;-145.69;100.00;52626.59;5072981;28;20556;-80
2022/12/21 04:30:47;;;;;;;2.73;1.50;;;;;;;-145.69;100.00;52638.47;5073872;28;20210;-80
2022/12/21 04:33:15;;;;;;;4.10;1.83;;;;;;;-145.69;100.00;52606.78;5073512;28;20649;-80
2022/12/21 04:37:30;;;;;;;2.27;1.60;;;;;;;-145.69;100.00;52626.59;5073361;28;20233;-80
2022/12/21 04:38:32;;;;;;;6.03;1.50;;;;;;;-145.69;100.00;52622.63;5073482;28;20277;-80
2022/12/21 04:40:59;;;;;;;4.43;1.63;;;;;;;-145.69;100.00;52638.47;5073166;28;20214;-80
2022/12/21 04:43:26;;;;;;;4.43;1.43;;;;;;;-145.69;100.00;52620.66;5073425;28;20210;-80
2022/12/21 04:46:00;;;;;;;3.50;1.30;;;;;;;-145.69;100.00;52628.56;5073536;28;20225;-80
2022/12/21 04:48:27;;;;;;;2.97;1.30;;;;;;;-145.69;100.00;52622.63;5073421;28;20206;-80
2022/12/21 04:50:53;;;;;;;5.83;1.50;;;;;;;-145.69;100.00;52630.53;5073350;28;20202;-80
2022/12/21 04:53:19;;;;;;;2.53;1.20;;;;;;;-145.69;100.00;52628.56;5072803;28;20661;-80
2022/12/21 04:55:47;;;;;;;4.27;1.50;;;;;;;-145.69;100.00;52600.84;5073425;28;20211;-80
2022/12/21 04:58:14;;;;;;;2.87;1.53;;;;;;;-145.69;100.00;52622.63;5072813;28;20206;-80
2022/12/21 05:00:41;;;;;;;3.97;1.70;;;;;;;-145.69;100.00;52642.44;5073229;28;20199;-80
2022/12/21 05:03:08;;;;;;;2.13;1.60;;;;;;;-145.69;100.00;52646.41;5072793;28;20199;-80
2022/12/21 05:05:34;;;;;;;2.00;1.70;;;;;;;-145.69;100.00;52606.78;5072696;28;20554;-81
2022/12/21 05:08:01;;;;;;;4.77;1.70;;;;;;;-145.69;100.00;52638.47;5072610;28;20198;-80
2022/12/21 05:10:27;;;;;;;2.00;1.57;;;;;;;-145.69;100.00;52606.78;5073111;28;20206;-81
2022/12/21 05:12:55;;;;;;;5.00;1.47;;;;;;;-145.69;100.00;52638.47;5073058;28;20569;-81
2022/12/21 05:15:21;;;;;;;2.97;1.60;;;;;;;-145.69;100.00;52628.56;5072917;28;20202;-81
2022/12/21 05:17:48;;;;;;;3.53;1.67;;;;;;;-145.69;100.00;52614.72;5072988;28;20207;-81
2022/12/21 05:20:15;;;;;;;2.33;1.67;;;;;;;-145.69;100.00;52610.75;5072850;28;20234;-81
2022/12/21 05:22:45;;;;;;;1.77;1.30;;;;;;;-145.69;100.00;52618.66;5072525;28;20225;-81
2022/12/21 05:25:11;;;;;;;5.00;1.33;;;;;;;-145.69;100.00;52634.50;5073104;28;20210;-81
2022/12/21 05:27:38;;;;;;;2.60;1.40;;;;;;;-145.69;100.00;52622.63;5072621;28;20199;-80
2022/12/21 05:30:07;;;;;;;2.37;1.63;;;;;;;-145.69;100.00;52654.31;5072787;28;20676;-81
2022/12/21 05:32:33;;;;;;;3.23;1.60;;;;;;;-145.69;100.00;52642.44;5072720;28;20213;-81
2022/12/21 05:35:00;;;;;;;2.87;1.53;;;;;;;-145.69;100.00;52602.81;5072302;28;20205;-81
2022/12/21 05:37:27;;;;;;;3.80;1.50;;;;;;;-145.69;100.00;52612.72;5072611;28;20227;-81
2022/12/21 05:39:54;;;;;;;3.60;1.90;;;;;;;-145.69;100.00;52646.41;5072280;28;20206;-81
2022/12/21 05:42:20;;;;;;;3.47;1.63;;;;;;;-145.69;100.00;52602.81;5072235;28;20227;-81
2022/12/21 05:44:47;;;;;;;7.47;2.60;;;;;;;-145.69;100.00;52664.22;5072870;28;20573;-80
2022/12/21 05:47:14;;;;;;;2.53;1.60;;;;;;;-145.69;100.00;52638.47;5073056;28;20558;-81
2022/12/21 05:49:41;;;;;;;4.67;1.67;;;;;;;-145.69;100.00;52642.44;5072655;28;20212;-81
2022/12/21 05:52:07;;;;;;;4.37;1.63;;;;;;;-145.69;100.00;52630.53;5072745;28;20194;-80
2022/12/21 05:54:34;;;;;;;4.67;1.70;;;;;;;-145.69;100.00;52670.16;5072842;28;20198;-81
2022/12/21 05:57:00;;;;;;;2.40;1.60;;;;;;;-145.69;100.00;52626.59;5072663;28;20604;-81
2022/12/21 05:59:27;;;;;;;2.63;1.70;;;;;;;-145.69;100.00;52640.44;5072609;28;20585;-81
2022/12/21 06:01:53;;;;;;;2.77;1.73;;;;;;;-145.69;100.00;52618.66;5072454;28;20697;-81
2022/12/21 06:04:21;;;;;;;6.37;1.77;;;;;;;-145.69;100.00;52656.28;5072570;28;20543;-80
2022/12/21 06:06:47;;;;;;;6.07;1.87;;;;;;;-145.69;100.00;52624.59;5072552;28;20198;-81
2022/12/21 06:09:14;;;;;;;2.67;1.47;;;;;;;-145.69;100.00;52664.22;5072518;28;20194;-81
2022/12/21 06:11:40;;;;;;;11.13;1.70;;;;;;;-145.69;100.00;52634.50;5072130;28;20191;-81
2022/12/21 06:14:07;;;;;;;3.90;1.90;;;;;;;-145.69;100.00;52658.28;5072109;28;20199;-81
2022/12/21 06:16:33;;;;;;;2.93;1.80;;;;;;;-145.69;100.00;52674.13;5070434;28;20218;-81
2022/12/21 06:19:00;;;;;;;5.70;2.10;;;;;;;-145.69;100.00;52638.47;5053439;28;20215;-80
2022/12/21 06:21:28;;;;;;;4.63;2.10;;;;;;;-145.69;100.00;52628.56;5056095;28;20733;-81
2022/12/21 06:23:54;;;;;;;4.63;2.00;;;;;;;-145.69;100.00;52650.34;5056753;28;20257;-81
2022/12/21 06:26:21;;;;;;;4.07;1.60;;;;;;;-145.69;100.00;52640.44;5056222;28;20215;-81
2022/12/21 06:28:48;;;;;;;3.67;2.10;;;;;;;-145.69;100.00;52670.16;5056236;28;20204;-81
2022/12/21 06:31:15;;;;;;;2.40;1.70;;;;;;;-145.69;100.00;52654.31;5055999;28;20211;-82
2022/12/21 06:33:41;;;;;;;5.07;2.00;;;;;;;-145.69;100.00;52618.66;5055982;28;20442;-82
2022/12/21 06:36:10;;;;;;;1.57;1.47;;;;;;;-145.69;100.00;52646.41;5056291;28;20235;-82
2022/12/21 06:38:38;;;;;;;2.90;1.80;;;;;;;-145.69;100.00;52630.53;5056477;28;20659;-82
2022/12/21 06:41:06;;;;;;;6.00;1.87;;;;;;;-145.69;100.00;52658.28;5065255;28;20191;-82
2022/12/21 06:43:35;;;;;;;4.63;1.70;;;;;;;-145.69;100.00;52626.59;5076084;28;20198;-82
2022/12/21 06:46:02;;;;;;;4.93;1.90;;;;;;;-145.69;100.00;52632.53;5075913;28;20434;-82
2022/12/21 06:48:33;;;;;;;4.13;1.97;;;;;;;-145.69;100.00;52630.53;5076360;28;20600;-81
2022/12/21 06:51:01;;;;;;;3.23;1.67;;;;;;;-145.69;100.00;52640.44;5076144;28;20206;-82
2022/12/21 06:53:30;;;;;;;5.27;2.10;;;;;;;-145.69;100.00;52626.59;5075751;28;20207;-81
2022/12/21 06:56:02;;;;;;;4.50;2.27;;;;;;;-145.69;100.00;52626.59;5075537;28;20211;-80
2022/12/21 06:58:29;;;;;;;5.33;2.50;;;;;;;-145.69;100.00;52616.69;5075195;28;20202;-80
2022/12/21 07:00:55;;;;;;;5.90;3.10;;;;;;;-145.69;100.00;52630.53;5075784;28;20206;-81
2022/12/21 07:03:23;;;;;;;5.03;2.67;;;;;;;-145.69;100.00;52642.44;5075489;28;20230;-80
2022/12/21 07:05:50;;;;;;;5.93;2.57;;;;;;;-145.69;100.00;52670.16;5075628;28;20202;-81
2022/12/21 07:08:16;;;;;;;4.67;2.83;;;;;;;-145.69;100.00;52648.38;5075778;28;20231;-81
2022/12/21 07:10:43;;;;;;;5.47;2.80;;;;;;;-145.69;100.00;52642.44;5075305;28;20195;-79
2022/12/21 07:13:11;;;;;;;4.37;2.70;;;;;;;-145.69;100.00;52654.31;5075170;28;20206;-81
2022/12/21 07:15:37;;;;;;;9.30;4.20;;;;;;;-145.69;100.00;52622.63;5075633;28;20199;-81
2022/12/21 07:18:04;;;;;;;6.57;2.53;;;;;;;-145.69;100.00;52606.78;5075604;28;20546;-82
2022/12/21 07:20:30;;;;;;;6.25;2.42;;;;;;;-145.69;100.00;52650.34;5074944;28;20445;-82
2022/12/21 07:22:57;;;;;;;9.73;3.63;;;;;;;-145.69;100.00;52648.38;5074270;28;20226;-82
2022/12/21 07:25:23;;;;;;;12.00;4.07;;;;;;;-145.69;100.00;52660.25;5073983;28;20692;-82
2022/12/21 07:27:50;;;;;;;16.03;4.50;;;;;;;-145.69;100.00;52650.34;5075754;28;20195;-82
2022/12/21 07:30:18;;;;;;;5.45;2.60;;;;;;;-145.69;100.00;52644.41;5075415;28;20457;-81
2022/12/21 07:32:44;;;;;;;6.00;2.67;;;;;;;-145.69;100.00;52630.53;5075448;28;20194;-82
2022/12/21 07:35:11;;;;;;;4.70;2.60;;;;;;;-145.69;100.00;52648.38;5076072;28;20203;-83
2022/12/21 07:37:37;;;;;;;11.57;5.20;;;;;;;-145.69;100.00;52622.63;5074925;28;20230;-82
2022/12/21 07:40:05;;;;;;;13.63;5.47;;;;;;;-145.69;100.00;52634.50;5075467;28;20285;-82
2022/12/21 07:42:32;;;;;;;8.13;4.00;;;;;;;-145.69;100.00;52634.50;5075178;28;20222;-82
2022/12/21 07:44:58;;;;;;;7.07;2.03;;;;;;;-145.69;100.00;52644.41;5075963;28;20234;-82
2022/12/21 07:47:26;;;;;;;8.53;3.17;;;;;;;-145.69;100.00;52638.47;5075372;28;20206;-82
2022/12/21 07:49:53;;;;;;;6.30;3.33;;;;;;;-145.69;100.00;52668.19;5075896;28;20202;-81
2022/12/21 07:52:19;;;;;;;4.87;2.40;;;;;;;-145.69;100.00;52668.19;5075421;28;20199;-82
2022/12/21 07:54:46;;;;;;;5.87;2.23;;;;;;;-145.69;100.00;52640.44;5075831;28;20575;-82
2022/12/21 07:57:12;;;;;;;3.87;2.17;;;;;;;-145.69;100.00;52642.44;5074802;28;20227;-82
2022/12/21 07:59:38;;;;;;;4.03;2.33;;;;;;;-145.69;100.00;52658.28;5074898;28;20199;-82
2022/12/21 08:02:05;;;;;;;3.67;1.80;;;;;;;-145.69;100.00;52646.41;5074811;28;20249;-82
2022/12/21 08:04:33;;;;;;;4.17;2.33;;;;;;;-145.69;100.00;52636.50;5074750;28;20210;-82
2022/12/21 08:06:59;;;;;;;6.10;1.73;;;;;;;-145.69;100.00;52662.22;5073813;28;20199;-82
2022/12/21 08:09:26;;;;;;;2.87;1.83;;;;;;;-145.69;100.00;52648.38;5074163;28;20609;-81
2022/12/21 08:11:52;;;;;;;4.10;1.90;;;;;;;-145.69;100.00;52630.53;5074476;28;20206;-83
2022/12/21 08:14:19;;;;;;;3.33;2.00;;;;;;;-145.69;100.00;52658.28;5074432;28;20195;-82
2022/12/21 08:16:45;;;;;;;2.10;1.73;;;;;;;-145.69;100.00;52610.75;5074521;28;20203;-82
2022/12/21 08:19:12;;;;;;;2.03;1.70;;;;;;;-145.69;100.00;52640.44;5073735;28;20195;-82
2022/12/21 08:21:40;;;;;;;5.63;2.40;;;;;;;-145.69;100.00;52642.44;5073971;28;20199;-82
2022/12/21 08:24:06;;;;;;;3.47;2.17;;;;;;;-145.69;100.00;52638.47;5074353;28;20256;-82
2022/12/21 08:26:33;;;;;;;4.13;2.53;;;;;;;-145.69;100.00;52622.63;5074439;28;20210;-82
2022/12/21 08:28:59;;;;;;;4.57;2.23;;;;;;;-145.69;100.00;52656.28;5074009;28;20202;-82
2022/12/21 08:31:26;;;;;;;4.00;2.00;;;;;;;-145.69;100.00;52622.63;5073950;28;20203;-82
2022/12/21 08:33:53;;;;;;;5.63;1.60;;;;;;;-145.69;100.00;52638.47;5073797;28;20210;-82
2022/12/21 08:36:21;;;;;;;2.80;1.80;;;;;;;-145.69;100.00;52658.28;5073118;28;20306;-82
2022/12/21 08:38:50;;;;;;;4.03;1.77;;;;;;;-145.69;100.00;52638.47;5073896;28;20202;-82
2022/12/21 08:41:17;;;;;;;2.23;1.73;;;;;;;-145.69;100.00;52636.50;5073375;28;20210;-81
2022/12/21 08:43:43;;;;;;;2.13;1.70;;;;;;;-145.69;100.00;52626.59;5073452;28;20234;-82
2022/12/21 08:46:11;;;;;;;4.20;1.73;;;;;;;-145.69;100.00;52642.44;5074112;28;20209;-83
2022/12/21 08:48:38;;;;;;;2.20;1.60;;;;;;;-145.69;100.00;52650.34;5073476;28;20201;-82
2022/12/21 08:51:07;;;;;;;3.93;1.90;;;;;;;-145.69;100.00;52652.34;5073373;28;20202;-81
2022/12/21 08:53:34;;;;;;;3.07;1.63;;;;;;;-145.69;100.00;52620.66;5073577;28;20212;-81
2022/12/21 08:56:02;;;;;;;5.70;2.00;;;;;;;-145.69;100.00;52654.31;5073567;28;20290;-82
2022/12/21 08:58:28;;;;;;;2.77;1.90;;;;;;;-145.69;100.00;52632.53;5073451;28;20213;-82
2022/12/21 09:00:55;;;;;;;3.50;1.90;;;;;;;-145.69;100.00;52630.53;5073115;28;20225;-82
2022/12/21 09:03:23;;;;;;;5.10;1.77;;;;;;;-145.69;100.00;52614.72;5073149;28;20222;-82
2022/12/21 09:05:54;;;;;;;2.40;1.77;;;;;;;-145.69;100.00;52626.59;5073101;28;20191;-82
2022/12/21 09:08:20;;;;;;;4.03;2.05;;;;;;;-145.69;100.00;52636.50;5073124;28;20442;-81
2022/12/21 09:10:47;;;;;;;5.07;1.90;;;;;;;-145.69;100.00;52642.44;5073228;28;20649;-81
2022/12/21 09:13:15;;;;;;;2.30;1.57;;;;;;;-145.69;100.00;52644.41;5073042;28;20199;-82
2022/12/21 09:15:42;;;;;;;3.13;1.90;;;;;;;-145.69;100.00;52648.38;5073011;28;20195;-82
2022/12/21 09:18:08;;;;;;;3.70;1.90;;;;;;;-145.69;100.00;52624.59;5072753;28;20211;-81
2022/12/21 09:20:35;;;;;;;2.57;1.50;;;;;;;-145.69;100.00;52614.72;5073384;28;20202;-81
2022/12/21 09:23:01;;;;;;;2.37;1.53;;;;;;;-145.69;100.00;52610.75;5073087;28;20280;-81
2022/12/21 09:25:28;;;;;;;4.20;2.23;;;;;;;-145.69;100.00;52668.19;5072953;28;20558;-81
2022/12/21 09:27:55;;;;;;;2.60;1.30;;;;;;;-145.69;100.00;52634.50;5072931;28;20237;-82
2022/12/21 09:30:23;;;;;;;4.60;1.70;;;;;;;-145.69;100.00;52618.66;5073226;28;20198;-82
2022/12/21 09:32:50;;;;;;;1.83;1.30;;;;;;;-145.69;100.00;52644.41;5072916;28;20214;-81
2022/12/21 09:35:16;;;;;;;2.60;1.63;;;;;;;-145.69;100.00;52646.41;5073751;28;20198;-82
2022/12/21 09:37:43;;;;;;;2.57;1.20;;;;;;;-145.69;100.00;52638.47;5073885;28;20233;-83
2022/12/21 09:40:12;;;;;;;3.33;1.40;;;;;;;-145.69;100.00;52630.53;5074730;28;20199;-81
2022/12/21 09:42:52;;;;;;;2.17;1.27;;;;;;;-145.69;100.00;52634.50;5073916;28;20223;-83
2022/12/21 09:45:26;;;;;;;1.60;1.40;;;;;;;-145.69;100.00;52618.66;5075595;28;20232;-82
2022/12/21 09:47:57;;;;;;;2.70;1.50;;;;;;;-145.69;100.00;52626.59;5074778;28;20202;-82
2022/12/21 09:50:27;;;;;;;3.80;1.50;;;;;;;-145.69;100.00;52632.53;5073536;28;20198;-81
2022/12/21 09:52:59;;;;;;;1.50;1.40;;;;;;;-145.69;100.00;52630.53;5074169;28;20206;-82
2022/12/21 09:55:30;;;;;;;3.20;1.80;;;;;;;-145.69;100.00;52642.44;5076838;28;20205;-81
2022/12/21 09:57:59;;;;;;;2.63;1.70;;;;;;;-145.69;100.00;52626.59;5077276;28;20198;-81
2022/12/21 10:00:32;;;;;;;4.37;1.83;;;;;;;-145.69;100.00;52606.78;5077000;28;20202;-81
2022/12/21 10:03:24;;;;;;;1.63;1.13;;;;;;;-145.69;100.00;52614.72;5076916;28;20230;-81
2022/12/21 10:06:07;;;;;;;1.83;1.40;;;;;;;-145.69;100.00;52662.22;5076388;28;20248;-81
2022/12/21 10:08:47;;;;;;;3.93;1.53;;;;;;;-145.69;100.00;52594.91;5076975;28;20263;-82
2022/12/21 10:11:21;;;;;;;9.20;1.40;;;;;;;-145.69;100.00;52648.38;5077272;28;20653;-82
2022/12/21 10:13:58;;;;;;;1.70;1.20;;;;;;;-145.69;100.00;52600.84;5076094;28;20244;-81
2022/12/21 10:16:35;;;;;;;1.70;1.30;;;;;;;-145.69;100.00;52612.72;5068898;28;20202;-82
2022/12/21 10:19:09;;;;;;;2.03;1.40;;;;;;;-145.69;100.00;52642.44;5076808;28;20221;-81
2022/12/21 10:21:47;;;;;;;2.73;1.80;;;;;;;-145.69;100.00;52632.53;5076588;28;20203;-82
2022/12/21 10:24:22;;;;;;;2.53;1.70;;;;;;;-145.69;100.00;52628.56;5075899;28;20684;-81
2022/12/21 10:26:53;;;;;;;4.93;1.40;;;;;;;-145.69;100.00;52630.53;5076125;28;20210;-81
2022/12/21 10:29:26;;;;;;;2.43;1.70;;;;;;;-145.69;100.00;52592.91;5076521;28;20568;-81
2022/12/21 10:31:55;;;;;;;3.30;1.60;;;;;;;-145.69;100.00;52614.72;5076299;28;20195;-81
2022/12/21 10:34:25;;;;;;;2.10;1.17;;;;;;;-145.69;100.00;52634.50;5075158;28;20661;-82
2022/12/21 10:36:55;;;;;;;2.53;1.10;;;;;;;-145.69;100.00;52630.53;5076207;28;20313;-81
2022/12/21 10:39:22;;;;;;;2.20;0.93;;;;;;;-145.69;100.00;52630.53;5076029;28;20194;-81
2022/12/21 10:41:53;;;;;;;2.03;1.10;;;;;;;-145.69;100.00;52604.81;5076791;28;20289;-82
2022/12/21 10:44:19;;;;;;;1.20;1.10;;;;;;;-145.69;100.00;52630.53;5076239;28;20226;-82
2022/12/21 10:46:47;;;;;;;1.77;1.40;;;;;;;-145.69;100.00;52586.97;5078038;28;20199;-83
2022/12/21 10:49:19;;;;;;;1.63;1.00;;;;;;;-145.69;100.00;52606.78;5078531;28;20551;-82
2022/12/21 10:51:46;;;;;;;1.50;1.20;;;;;;;-145.69;100.00;52630.53;5078701;28;20646;-82
2022/12/21 10:54:12;;;;;;;1.70;1.27;;;;;;;-145.69;100.00;52624.59;5076191;28;20199;-82
2022/12/21 10:56:45;;;;;;;1.73;1.40;;;;;;;-145.69;100.00;52602.81;5076142;28;20211;-82
2022/12/21 10:59:18;;;;;;;3.50;1.50;;;;;;;-145.69;100.00;52640.44;5076237;28;20231;-82
2022/12/21 11:01:45;;;;;;;2.20;1.57;;;;;;;-145.69;100.00;52600.84;5075880;28;20645;-82
2022/12/21 11:04:16;;;;;;;1.57;1.20;;;;;;;-145.69;100.00;52638.47;5075354;28;20230;-82
2022/12/21 11:06:56;;;;;;;1.63;1.27;;;;;;;-145.69;100.00;52610.75;5065289;28;20668;-82
2022/12/21 11:09:38;;;;;;;4.23;2.10;;;;;;;-145.69;100.00;52622.63;5076163;28;20285;-82
2022/12/21 11:12:15;;;;;;;7.30;4.20;;;;;;;-145.69;100.00;52626.59;5073948;28;20203;-81
2022/12/21 11:14:41;;;;;;;2.53;1.70;;;;;;;-145.69;100.00;52606.78;5070804;28;20202;-79
2022/12/21 11:17:19;;;;;;;2.27;1.30;;;;;;;-145.69;100.00;52638.47;5075371;28;20206;-80
2022/12/21 11:19:48;;;;;;;2.17;1.33;;;;;;;-145.69;100.00;52622.63;5075536;28;20653;-80
2022/12/21 11:22:17;;;;;;;2.13;1.50;;;;;;;-145.69;100.00;52634.50;5075815;28;20203;-80
2022/12/21 11:24:46;;;;;;;1.20;1.10;;;;;;;-145.69;100.00;52624.59;5075341;28;20222;-80
2022/12/21 11:27:25;;;;;;;2.33;1.60;;;;;;;-145.69;100.00;52632.53;5075417;28;20290;-79
2022/12/21 11:29:55;;;;;;;1.10;1.00;;;;;;;-145.69;100.00;52594.91;5075223;28;20210;-80